Time;durP1;ratioP1;P1;durP2;ratioP2;P2;SDS_P1;SDS_P2;PMS_P1;PMS_P2;Temp;Humidity;BMP_temperature;BMP_pressure;BME280_temperature;BME280_humidity;BME280_pressure;Samples;Min_cycle;Max_cycle;Signal;HPM_P1;HPM_P2
2023/03/13 00:01:38;;;;;;;22.00;4.30;;;8.60;99.90;;;;;;5032999;28;20412;-63
2023/03/13 00:04:05;;;;;;;26.50;4.65;;;8.60;99.90;;;;;;5031135;28;20064;-63
2023/03/13 00:06:36;;;;;;;20.90;4.05;;;8.70;99.90;;;;;;5027581;28;20034;-64
2023/03/13 00:09:04;;;;;;;24.48;4.28;;;8.70;99.90;;;;;;5031808;28;20026;-63
2023/03/13 00:11:30;;;;;;;26.20;5.40;;;8.70;99.90;;;;;;5029360;28;20756;-63
2023/03/13 00:13:58;;;;;;;34.83;4.68;;;8.70;99.90;;;;;;5028690;28;20432;-64
2023/03/13 00:16:25;;;;;;;22.67;3.95;;;8.70;99.90;;;;;;5029670;28;20427;-65
2023/03/13 00:18:52;;;;;;;20.80;3.80;;;8.70;99.90;;;;;;5031768;28;20041;-63
2023/03/13 00:21:21;;;;;;;37.78;5.80;;;8.70;99.90;;;;;;5025533;28;20079;-82
2023/03/13 00:23:48;;;;;;;28.23;4.55;;;8.70;99.90;;;;;;5025603;28;20113;-63
2023/03/13 00:26:23;;;;;;;28.55;5.95;;;8.80;99.90;;;;;;5029434;28;20451;-63
2023/03/13 00:28:50;;;;;;;13.35;3.38;;;8.70;99.90;;;;;;5029997;28;20045;-80
2023/03/13 00:31:21;;;;;;;22.15;4.03;;;8.80;99.90;;;;;;5030718;28;20022;-63
2023/03/13 00:33:50;;;;;;;17.60;3.55;;;8.80;99.90;;;;;;5031997;28;20321;-63
2023/03/13 00:36:25;;;;;;;24.75;4.68;;;8.80;99.90;;;;;;5026470;28;20044;-85
2023/03/13 00:38:52;;;;;;;25.67;4.13;;;8.80;99.90;;;;;;5030872;28;20329;-64
2023/03/13 00:41:21;;;;;;;19.30;3.85;;;8.90;99.90;;;;;;5031630;28;20113;-64
2023/03/13 00:43:47;;;;;;;20.05;4.22;;;8.90;99.90;;;;;;5030476;28;20041;-81
2023/03/13 00:46:15;;;;;;;30.35;4.40;;;8.90;99.90;;;;;;5032764;28;20022;-85
2023/03/13 00:48:42;;;;;;;21.58;5.03;;;8.90;99.90;;;;;;5021278;28;20393;-80
2023/03/13 00:51:08;;;;;;;18.23;4.25;;;8.90;99.90;;;;;;5032195;28;20110;-80
2023/03/13 00:53:35;;;;;;;15.20;4.15;;;8.90;99.90;;;;;;5019056;28;20046;-83
2023/03/13 00:56:07;;;;;;;21.73;4.45;;;8.90;99.90;;;;;;5033297;28;20044;-84
2023/03/13 00:58:35;;;;;;;19.58;4.65;;;9.00;99.90;;;;;;5031021;28;20040;-82
2023/03/13 01:01:08;;;;;;;19.77;5.18;;;9.00;99.90;;;;;;5033845;28;20030;-79
2023/03/13 01:03:34;;;;;;;18.13;5.05;;;8.90;99.90;;;;;;5022112;28;20078;-82
2023/03/13 01:06:02;;;;;;;23.55;5.45;;;8.90;99.90;;;;;;5028025;28;20032;-85
2023/03/13 01:08:29;;;;;;;18.63;5.78;;;9.00;99.90;;;;;;5018854;28;20156;-78
2023/03/13 01:11:06;;;;;;;19.00;5.20;;;9.00;99.90;;;;;;5015592;28;20029;-87
2023/03/13 01:13:32;;;;;;;18.08;5.43;;;9.00;99.90;;;;;;5030498;28;20041;-79
2023/03/13 01:16:18;;;;;;;22.70;5.15;;;8.90;99.90;;;;;;5032464;28;20034;-81
2023/03/13 01:18:54;;;;;;;25.55;5.95;;;9.00;99.90;;;;;;5033209;28;20168;-85
2023/03/13 01:21:22;;;;;;;15.98;5.75;;;8.90;99.90;;;;;;5023453;28;20120;-88
2023/03/13 01:23:49;;;;;;;18.83;5.80;;;9.00;99.90;;;;;;5035030;28;20187;-91
2023/03/13 01:26:15;;;;;;;17.73;6.32;;;9.00;99.90;;;;;;5035645;28;20037;-78
2023/03/13 01:28:41;;;;;;;12.65;4.78;;;9.10;99.90;;;;;;5034082;28;20046;-82
2023/03/13 01:31:25;;;;;;;22.05;5.20;;;9.10;99.90;;;;;;5034155;28;20026;-80
2023/03/13 01:33:55;;;;;;;14.23;4.43;;;9.10;99.90;;;;;;5035184;28;20033;-81
2023/03/13 01:36:22;;;;;;;10.63;4.05;;;9.10;99.90;;;;;;5028780;28;20321;-86
2023/03/13 01:38:53;;;;;;;18.02;5.38;;;9.20;99.90;;;;;;5036722;28;20032;-88
2023/03/13 01:41:20;;;;;;;13.68;4.55;;;9.10;99.90;;;;;;5027418;28;20041;-86
2023/03/13 01:43:47;;;;;;;14.05;4.45;;;9.20;99.90;;;;;;5037356;28;20041;-78
2023/03/13 01:46:21;;;;;;;14.35;5.25;;;9.20;99.90;;;;;;5035703;28;20029;-83
2023/03/13 01:48:59;;;;;;;12.23;5.13;;;9.30;99.90;;;;;;5034403;28;20488;-79
2023/03/13 01:51:27;;;;;;;15.35;5.50;;;9.30;99.90;;;;;;5034775;28;20029;-90
2023/03/13 01:54:04;;;;;;;17.55;6.18;;;9.20;99.90;;;;;;5025795;28;20052;-82
2023/03/13 01:56:54;;;;;;;13.45;5.75;;;9.30;99.90;;;;;;5037155;28;20025;-86
2023/03/13 01:59:25;;;;;;;18.08;5.85;;;9.30;99.90;;;;;;5031048;28;20408;-79
2023/03/13 02:01:54;;;;;;;21.08;6.53;;;9.30;99.90;;;;;;5035414;28;20065;-82
2023/03/13 02:04:22;;;;;;;18.83;6.22;;;9.40;99.90;;;;;;5023006;28;20104;-84
2023/03/13 02:06:53;;;;;;;18.25;6.88;;;9.50;99.90;;;;;;5035185;28;20027;-86
2023/03/13 02:09:22;;;;;;;15.02;6.70;;;9.50;99.90;;;;;;5029736;28;20029;-85
2023/03/13 02:12:07;;;;;;;19.20;7.80;;;9.50;99.90;;;;;;5025234;28;20026;-86
2023/03/13 02:14:36;;;;;;;15.73;7.57;;;9.60;99.90;;;;;;5032063;28;20149;-83
2023/03/13 02:17:03;;;;;;;18.80;7.15;;;9.70;99.90;;;;;;5034816;28;20109;-78
2023/03/13 02:19:29;;;;;;;;;;;9.70;99.90;;;;;;5034033;28;20052;-80
2023/03/13 02:22:19;;;;;;;24.00;8.73;;;9.70;99.90;;;;;;5036439;28;19913;-84
2023/03/13 02:25:01;;;;;;;14.60;7.53;;;9.80;99.90;;;;;;5032596;28;20274;-86
2023/03/13 02:27:28;;;;;;;19.65;8.57;;;9.80;99.90;;;;;;5031408;28;20341;-78
2023/03/13 02:29:54;;;;;;;26.00;9.75;;;9.80;99.90;;;;;;5035710;28;20803;-86
2023/03/13 02:32:21;;;;;;;17.90;9.30;;;9.90;99.90;;;;;;5030240;28;20436;-79
2023/03/13 02:34:51;;;;;;;21.88;9.13;;;9.80;99.90;;;;;;5031065;28;20037;-79
2023/03/13 02:37:19;;;;;;;18.85;9.25;;;9.90;99.90;;;;;;5034242;28;20021;-83
2023/03/13 02:39:49;;;;;;;23.70;9.10;;;9.90;99.90;;;;;;5030954;28;20026;-65
2023/03/13 02:42:18;;;;;;;20.20;9.20;;;9.90;99.90;;;;;;5028228;28;20017;-65
2023/03/13 02:44:46;;;;;;;18.83;8.95;;;9.90;99.90;;;;;;5034647;28;20029;-77
2023/03/13 02:47:16;;;;;;;17.95;9.23;;;10.00;99.90;;;;;;5029388;28;20025;-80
2023/03/13 02:49:42;;;;;;;22.63;9.70;;;10.00;99.90;;;;;;5035473;28;21589;-83
2023/03/13 02:52:37;;;;;;;24.37;9.60;;;10.10;99.90;;;;;;5034836;28;20060;-84
2023/03/13 02:55:13;;;;;;;21.13;8.60;;;10.10;99.90;;;;;;5030524;28;20017;-80
2023/03/13 02:57:39;;;;;;;15.60;9.07;;;10.20;99.90;;;;;;5034895;28;20049;-83
2023/03/13 03:00:11;;;;;;;19.50;9.30;;;10.20;99.90;;;;;;5035841;28;20091;-79
2023/03/13 03:02:37;;;;;;;23.55;10.27;;;10.20;99.90;;;;;;5027116;28;20032;-85
2023/03/13 03:05:04;;;;;;;21.80;9.02;;;10.30;99.90;;;;;;5023263;28;20439;-79
2023/03/13 03:07:30;;;;;;;18.25;10.13;;;10.30;99.90;;;;;;5024516;28;20079;-83
2023/03/13 03:09:56;;;;;;;24.85;10.48;;;10.40;99.90;;;;;;5034254;28;20029;-85
2023/03/13 03:12:22;;;;;;;24.33;10.77;;;10.50;99.90;;;;;;5034710;28;20033;-81
2023/03/13 03:14:48;;;;;;;26.60;10.83;;;10.50;99.90;;;;;;5030794;28;20029;-87
2023/03/13 03:17:14;;;;;;;23.03;12.17;;;10.60;99.90;;;;;;5029081;28;20070;-87
2023/03/13 03:19:40;;;;;;;22.87;11.47;;;10.60;99.90;;;;;;5034083;28;20033;-83
2023/03/13 03:22:06;;;;;;;26.87;11.33;;;10.70;99.90;;;;;;5030794;28;20033;-85
2023/03/13 03:24:32;;;;;;;26.63;12.83;;;10.80;99.90;;;;;;5035725;28;20025;-85
2023/03/13 03:26:58;;;;;;;26.73;12.67;;;10.80;99.90;;;;;;5034358;28;20128;-78
2023/03/13 03:29:24;;;;;;;27.38;12.50;;;10.80;99.90;;;;;;5034770;28;20029;-84
2023/03/13 03:31:50;;;;;;;25.93;12.50;;;10.80;99.90;;;;;;5029522;28;20425;-87
2023/03/13 03:34:16;;;;;;;31.23;12.57;;;10.90;99.90;;;;;;5026022;28;20337;-86
2023/03/13 03:36:42;;;;;;;27.73;12.23;;;10.90;99.90;;;;;;5033025;28;20274;-85
2023/03/13 03:39:08;;;;;;;22.57;12.00;;;10.90;99.90;;;;;;5023729;28;20049;-79
2023/03/13 03:41:34;;;;;;;25.57;12.23;;;10.90;99.90;;;;;;5028042;28;20047;-83
2023/03/13 03:44:00;;;;;;;24.58;11.10;;;11.00;99.90;;;;;;5026279;28;20029;-89
2023/03/13 03:46:26;;;;;;;22.17;11.50;;;11.00;99.90;;;;;;5027195;28;20107;-87
2023/03/13 03:48:52;;;;;;;22.73;10.67;;;11.00;99.90;;;;;;5026324;28;20022;-83
2023/03/13 03:51:19;;;;;;;22.50;11.07;;;11.00;99.90;;;;;;5033587;28;20034;-86
2023/03/13 03:53:45;;;;;;;22.67;11.48;;;11.00;99.90;;;;;;5034090;28;20028;-89
2023/03/13 03:56:10;;;;;;;21.17;10.70;;;11.00;99.90;;;;;;5031162;28;20375;-81
2023/03/13 03:58:36;;;;;;;21.37;10.27;;;11.00;99.90;;;;;;5030649;28;20030;-90
2023/03/13 04:01:03;;;;;;;19.97;9.57;;;11.10;99.90;;;;;;5025127;28;20317;-91
2023/03/13 04:03:29;;;;;;;22.00;10.68;;;11.10;99.90;;;;;;5026576;28;20124;-88
2023/03/13 04:05:55;;;;;;;17.23;9.07;;;11.10;99.90;;;;;;5033575;28;20108;-84
2023/03/13 04:08:21;;;;;;;30.52;9.55;;;11.20;99.90;;;;;;5032817;28;20155;-87
2023/03/13 04:10:47;;;;;;;21.53;9.40;;;11.20;99.90;;;;;;5025962;28;20116;-81
2023/03/13 04:13:14;;;;;;;14.57;9.13;;;11.20;99.90;;;;;;5018179;28;20400;-83
2023/03/13 04:15:40;;;;;;;21.88;9.20;;;11.20;99.90;;;;;;5031819;28;20025;-86
2023/03/13 04:18:06;;;;;;;14.40;7.95;;;11.20;99.90;;;;;;5027733;28;20074;-85
2023/03/13 04:20:33;;;;;;;18.05;8.18;;;11.20;99.90;;;;;;5034008;28;20037;-84
2023/03/13 04:22:59;;;;;;;19.00;7.35;;;11.20;99.90;;;;;;5026931;28;20030;-87
2023/03/13 04:25:25;;;;;;;14.23;7.43;;;11.20;99.90;;;;;;5025388;28;20363;-86
2023/03/13 04:27:51;;;;;;;22.97;8.03;;;11.30;99.90;;;;;;5034479;28;20056;-85
2023/03/13 04:30:17;;;;;;;17.60;6.97;;;11.30;99.90;;;;;;5032546;28;20313;-85
2023/03/13 04:32:42;;;;;;;13.47;7.00;;;11.30;99.90;;;;;;5031697;28;20033;-88
2023/03/13 04:35:09;;;;;;;19.53;7.10;;;11.30;99.90;;;;;;5033626;28;20281;-85
2023/03/13 04:37:35;;;;;;;16.23;7.13;;;11.30;99.90;;;;;;5032661;28;20420;-85
2023/03/13 04:40:01;;;;;;;15.80;7.30;;;11.20;99.90;;;;;;5031540;28;20278;-87
2023/03/13 04:42:27;;;;;;;12.33;6.00;;;11.30;99.90;;;;;;5030580;28;20282;-80
2023/03/13 04:44:53;;;;;;;12.10;6.30;;;11.20;99.90;;;;;;5025971;28;20022;-82
2023/03/13 04:47:19;;;;;;;16.97;6.10;;;11.30;99.90;;;;;;5032115;28;20045;-84
2023/03/13 04:49:45;;;;;;;13.27;5.73;;;11.30;99.90;;;;;;5033000;28;20026;-88
2023/03/13 04:52:11;;;;;;;12.43;6.77;;;11.30;99.90;;;;;;5032339;28;20087;-87
2023/03/13 04:54:37;;;;;;;9.57;6.00;;;11.30;99.90;;;;;;5033475;28;20025;-85
2023/03/13 04:57:03;;;;;;;21.77;6.77;;;11.20;99.90;;;;;;5035638;28;20311;-89
2023/03/13 04:59:29;;;;;;;17.37;6.03;;;11.30;99.90;;;;;;5034502;28;20026;-87
2023/03/13 05:01:55;;;;;;;18.55;6.40;;;11.30;99.90;;;;;;5034472;28;20056;-80
2023/03/13 05:04:21;;;;;;;11.77;6.33;;;11.30;99.90;;;;;;5037097;28;20308;-84
2023/03/13 05:06:47;;;;;;;12.77;5.88;;;11.30;99.90;;;;;;5035744;28;20056;-83
2023/03/13 05:09:13;;;;;;;14.37;7.03;;;11.30;99.90;;;;;;5035666;28;20514;-78
2023/03/13 05:11:40;;;;;;;11.70;6.87;;;11.30;99.90;;;;;;5033457;28;20159;-87
2023/03/13 05:14:09;;;;;;;15.80;6.88;;;11.30;99.90;;;;;;5030282;28;20040;-83
2023/03/13 05:16:35;;;;;;;13.77;6.55;;;11.30;99.90;;;;;;5029975;28;20037;-79
2023/03/13 05:19:01;;;;;;;13.63;7.85;;;11.40;99.90;;;;;;5031651;28;20018;-81
2023/03/13 05:21:27;;;;;;;14.43;7.77;;;11.40;99.90;;;;;;5027904;28;20080;-81
2023/03/13 05:23:53;;;;;;;23.23;7.13;;;11.40;99.90;;;;;;5017801;28;20444;-86
2023/03/13 05:26:19;;;;;;;20.43;7.93;;;11.40;99.90;;;;;;5034630;28;20025;-84
2023/03/13 05:28:45;;;;;;;11.40;6.70;;;11.40;99.90;;;;;;5036148;28;20120;-82
2023/03/13 05:31:10;;;;;;;14.93;6.93;;;11.40;99.90;;;;;;5035725;28;20033;-79
2023/03/13 05:33:36;;;;;;;22.70;7.87;;;11.40;99.90;;;;;;5028745;28;20326;-83
2023/03/13 05:36:02;;;;;;;12.70;6.03;;;11.40;99.90;;;;;;5037457;28;20029;-82
2023/03/13 05:38:29;;;;;;;19.53;5.50;;;11.40;99.90;;;;;;5036133;28;20062;-81
2023/03/13 05:40:54;;;;;;;14.18;6.03;;;11.40;99.90;;;;;;5031274;28;20270;-87
2023/03/13 05:43:20;;;;;;;16.50;5.20;;;11.40;99.90;;;;;;5036311;28;20041;-77
2023/03/13 05:45:46;;;;;;;12.07;5.10;;;11.40;99.90;;;;;;5032380;28;20026;-85
2023/03/13 05:48:12;;;;;;;19.87;4.70;;;11.50;99.90;;;;;;5031071;28;20030;-81
2023/03/13 05:50:38;;;;;;;12.37;4.60;;;11.50;99.90;;;;;;5030255;28;20325;-80
2023/03/13 05:53:04;;;;;;;17.57;4.53;;;11.50;99.90;;;;;;5028292;28;20348;-80
2023/03/13 05:55:30;;;;;;;14.37;4.27;;;11.50;99.90;;;;;;5035759;28;20044;-77
2023/03/13 05:57:56;;;;;;;14.87;3.73;;;11.50;99.90;;;;;;5028777;28;20060;-78
2023/03/13 06:00:22;;;;;;;13.57;3.90;;;11.60;99.90;;;;;;5033027;28;20128;-80
2023/03/13 06:02:48;;;;;;;11.52;3.53;;;11.60;99.90;;;;;;5033174;28;20310;-84
2023/03/13 06:05:14;;;;;;;15.77;4.00;;;11.70;99.90;;;;;;5034926;28;20044;-79
2023/03/13 06:07:40;;;;;;;16.73;4.23;;;11.70;99.90;;;;;;5031861;28;20022;-83
2023/03/13 06:10:06;;;;;;;11.07;4.00;;;11.70;99.90;;;;;;5011021;28;20629;-82
2023/03/13 06:12:32;;;;;;;17.00;4.50;;;11.70;99.90;;;;;;5034010;28;20031;-78
2023/03/13 06:14:57;;;;;;;9.20;3.87;;;11.70;99.90;;;;;;5028850;28;20124;-80
2023/03/13 06:17:24;;;;;;;15.83;3.80;;;11.70;99.90;;;;;;5034281;28;20022;-77
2023/03/13 06:19:50;;;;;;;14.60;3.85;;;11.70;99.90;;;;;;5032907;28;20037;-83
2023/03/13 06:22:16;;;;;;;12.38;3.70;;;11.70;99.90;;;;;;5033912;28;20038;-83
2023/03/13 06:24:47;;;;;;;11.00;3.67;;;11.70;99.90;;;;;;5033869;28;20444;-87
2023/03/13 06:27:13;;;;;;;14.93;3.20;;;11.70;99.90;;;;;;5035053;28;20476;-89
2023/03/13 06:29:39;;;;;;;16.03;3.83;;;11.70;99.90;;;;;;5034566;28;20120;-79
2023/03/13 06:32:05;;;;;;;15.93;4.03;;;11.80;99.90;;;;;;5034109;28;20079;-80
2023/03/13 06:34:31;;;;;;;18.42;5.10;;;11.80;99.90;;;;;;5009138;28;20037;-85
2023/03/13 06:36:59;;;;;;;14.80;4.70;;;11.80;99.90;;;;;;5031397;28;20038;-80
2023/03/13 06:39:25;;;;;;;16.88;5.85;;;11.80;99.90;;;;;;5033968;28;20037;-80
2023/03/13 06:41:51;;;;;;;11.13;3.50;;;11.80;99.90;;;;;;5025027;28;20415;-86
2023/03/13 06:44:17;;;;;;;7.53;3.10;;;11.80;99.90;;;;;;5018628;28;20377;-86
2023/03/13 06:46:42;;;;;;;14.33;3.77;;;11.80;99.90;;;;;;5026279;28;20037;-81
2023/03/13 06:49:08;;;;;;;7.87;2.87;;;11.80;99.90;;;;;;5024846;28;20029;-79
2023/03/13 06:51:34;;;;;;;10.83;3.97;;;11.80;99.90;;;;;;5027163;28;20032;-78
2023/03/13 06:54:02;;;;;;;17.03;3.83;;;11.80;99.90;;;;;;5030335;28;20032;-87
2023/03/13 06:56:27;;;;;;;10.05;3.50;;;11.80;99.90;;;;;;5027365;28;20438;-84
2023/03/13 06:58:53;;;;;;;15.80;5.30;;;11.70;99.90;;;;;;5029937;28;20036;-83
2023/03/13 07:01:19;;;;;;;10.57;3.83;;;11.60;99.90;;;;;;5028465;28;20033;-82
2023/03/13 07:03:47;;;;;;;16.90;5.17;;;11.60;99.90;;;;;;5024880;28;20377;-83
2023/03/13 07:06:13;;;;;;;11.98;4.45;;;11.60;99.90;;;;;;5027849;28;20373;-84
2023/03/13 07:08:39;;;;;;;7.40;3.53;;;11.60;99.90;;;;;;5027303;28;20029;-83
2023/03/13 07:11:08;;;;;;;13.20;3.90;;;11.50;99.90;;;;;;5026076;28;20052;-65
2023/03/13 07:13:34;;;;;;;13.43;4.82;;;11.60;99.90;;;;;;5025427;28;20034;-66
2023/03/13 07:16:03;;;;;;;12.48;4.75;;;11.50;99.90;;;;;;5027033;28;20029;-66
2023/03/13 07:18:29;;;;;;;15.88;3.92;;;11.50;99.90;;;;;;5009075;28;20042;-67
2023/03/13 07:20:57;;;;;;;12.23;3.63;;;11.50;99.90;;;;;;5032976;28;20037;-67
2023/03/13 07:23:24;;;;;;;6.45;3.67;;;11.50;99.90;;;;;;5024947;28;20029;-68
2023/03/13 07:25:55;;;;;;;11.02;4.63;;;11.50;99.90;;;;;;5032637;28;20025;-87
2023/03/13 07:28:21;;;;;;;9.57;4.68;;;11.50;99.90;;;;;;5035088;28;20049;-67
2023/03/13 07:30:48;;;;;;;12.32;4.35;;;11.50;99.90;;;;;;5033773;28;20036;-66
2023/03/13 07:33:14;;;;;;;14.70;5.22;;;11.50;99.90;;;;;;5033179;28;20048;-73
2023/03/13 07:35:39;;;;;;;20.17;5.37;;;11.50;99.90;;;;;;5036251;28;20100;-67
2023/03/13 07:38:05;;;;;;;11.67;4.77;;;11.50;99.90;;;;;;5034022;28;20112;-67
2023/03/13 07:40:31;;;;;;;13.83;5.97;;;11.50;99.90;;;;;;5032647;28;20025;-66
2023/03/13 07:42:56;;;;;;;17.43;5.03;;;11.50;99.90;;;;;;5028581;28;20113;-67
2023/03/13 07:45:22;;;;;;;18.73;6.50;;;11.50;99.90;;;;;;5021931;28;20356;-66
2023/03/13 07:47:48;;;;;;;25.40;6.97;;;11.50;99.90;;;;;;5021477;28;20022;-67
2023/03/13 07:50:13;;;;;;;22.07;6.93;;;11.50;99.90;;;;;;5032847;28;20034;-67
2023/03/13 07:52:39;;;;;;;21.10;9.37;;;11.50;99.90;;;;;;5035026;28;20040;-66
2023/03/13 07:55:05;;;;;;;19.93;5.73;;;11.50;99.90;;;;;;5031758;28;20101;-68
2023/03/13 07:57:31;;;;;;;11.47;4.80;;;11.50;99.90;;;;;;5032582;28;20095;-66
2023/03/13 07:59:56;;;;;;;18.93;5.83;;;11.50;99.90;;;;;;5030298;28;20034;-66
2023/03/13 08:02:22;;;;;;;18.00;5.00;;;11.60;99.90;;;;;;5032769;28;20026;-85
2023/03/13 08:04:51;;;;;;;13.90;4.50;;;11.50;99.90;;;;;;5029798;28;20025;-86
2023/03/13 08:07:17;;;;;;;10.05;5.65;;;11.60;99.90;;;;;;5032937;28;20071;-65
2023/03/13 08:09:43;;;;;;;11.57;4.70;;;11.70;99.90;;;;;;5029221;28;20025;-67
2023/03/13 08:12:09;;;;;;;14.57;5.40;;;11.80;99.90;;;;;;5024765;28;20432;-66
2023/03/13 08:14:34;;;;;;;11.17;5.33;;;12.20;99.90;;;;;;5028176;28;20033;-66
2023/03/13 08:17:00;;;;;;;10.73;4.30;;;12.20;99.90;;;;;;5032362;28;20152;-66
2023/03/13 08:19:27;;;;;;;13.53;5.33;;;12.20;99.90;;;;;;5028581;28;20022;-67
2023/03/13 08:21:53;;;;;;;13.93;4.28;;;12.10;99.90;;;;;;5033823;28;20029;-91
2023/03/13 08:24:18;;;;;;;12.53;4.70;;;12.10;99.90;;;;;;5032109;28;20036;-67
2023/03/13 08:26:44;;;;;;;13.03;3.80;;;12.10;99.90;;;;;;5030291;28;20040;-67
2023/03/13 08:29:13;;;;;;;10.67;4.30;;;12.10;99.90;;;;;;5029709;28;20144;-67
2023/03/13 08:31:47;;;;;;;9.32;3.75;;;12.10;99.90;;;;;;5025270;28;20036;-66
2023/03/13 08:34:14;;;;;;;12.18;4.50;;;12.10;99.90;;;;;;5031946;28;20037;-85
2023/03/13 08:36:41;;;;;;;9.52;3.17;;;12.10;99.90;;;;;;5031218;28;20042;-66
2023/03/13 08:39:11;;;;;;;8.68;3.47;;;12.10;99.90;;;;;;5032700;28;20030;-67
2023/03/13 08:41:39;;;;;;;6.93;2.88;;;12.10;99.90;;;;;;5031974;28;20033;-67
2023/03/13 08:44:06;;;;;;;9.05;2.85;;;12.10;99.90;;;;;;5030408;28;20061;-66
2023/03/13 08:46:33;;;;;;;;;;;12.10;99.90;;;;;;5018458;28;20702;-66
2023/03/13 08:48:59;;;;;;;6.90;2.10;;;12.20;99.90;;;;;;5026389;28;20295;-66
2023/03/13 08:51:27;;;;;;;4.10;2.70;;;12.20;99.90;;;;;;5030151;28;20068;-68
2023/03/13 08:53:54;;;;;;;5.30;2.78;;;12.20;99.90;;;;;;5020443;28;20025;-78
2023/03/13 08:56:22;;;;;;;8.02;2.80;;;12.20;99.90;;;;;;5029245;28;20029;-67
2023/03/13 08:58:53;;;;;;;9.82;2.55;;;12.30;99.90;;;;;;5032077;28;20037;-67
2023/03/13 09:01:20;;;;;;;9.88;2.38;;;12.30;99.90;;;;;;5028713;28;20022;-67
2023/03/13 09:03:46;;;;;;;6.82;2.00;;;12.40;99.90;;;;;;5031374;28;20052;-67
2023/03/13 09:06:12;;;;;;;7.83;2.30;;;12.50;99.90;;;;;;5031174;28;20359;-67
2023/03/13 09:08:39;;;;;;;6.47;2.17;;;12.90;99.90;;;;;;5030568;28;20413;-82
2023/03/13 09:11:14;;;;;;;6.47;1.85;;;13.30;99.90;;;;;;5033028;28;20030;-67
2023/03/13 09:13:42;;;;;;;7.53;1.75;;;13.70;99.90;;;;;;5031727;28;20037;-67
2023/03/13 09:16:19;;;;;;;12.88;2.10;;;14.00;99.90;;;;;;5031793;28;20029;-66
2023/03/13 09:18:46;;;;;;;7.78;1.73;;;13.90;99.90;;;;;;5031172;28;20042;-68
2023/03/13 09:21:15;;;;;;;8.77;1.70;;;13.70;99.90;;;;;;5020703;28;20046;-84
2023/03/13 09:23:41;;;;;;;8.00;2.33;;;13.80;99.90;;;;;;5032601;28;20021;-67
2023/03/13 09:26:07;;;;;;;18.03;2.70;;;13.90;99.90;;;;;;5028805;28;20040;-66
2023/03/13 09:28:34;;;;;;;4.90;1.73;;;13.80;99.90;;;;;;5011769;28;20057;-67
2023/03/13 09:31:07;;;;;;;7.72;2.25;;;14.10;99.90;;;;;;5030681;28;20056;-66
2023/03/13 09:33:33;;;;;;;13.57;2.10;;;14.10;99.90;;;;;;5029090;28;20037;-87
2023/03/13 09:35:59;;;;;;;13.90;2.00;;;14.00;99.90;;;;;;5028572;28;20030;-81
2023/03/13 09:38:24;;;;;;;13.20;2.63;;;14.00;99.90;;;;;;5030854;28;20439;-83
2023/03/13 09:40:52;;;;;;;12.43;2.53;;;14.10;99.90;;;;;;5022724;28;20329;-67
2023/03/13 09:43:40;;;;;;;13.73;1.95;;;14.30;99.90;;;;;;5030281;28;20038;-67
2023/03/13 09:46:26;;;;;;;14.32;2.33;;;14.70;99.90;;;;;;5031757;28;20036;-67
2023/03/13 09:49:01;;;;;;;7.85;2.15;;;14.60;99.90;;;;;;5034016;28;20025;-67
2023/03/13 09:51:57;;;;;;;9.50;1.60;;;14.60;99.90;;;;;;5034926;28;20033;-67
2023/03/13 09:54:27;;;;;;;16.92;1.98;;;14.30;99.90;;;;;;5026516;28;20124;-83
2023/03/13 09:57:06;;;;;;;8.35;1.92;;;14.20;99.90;;;;;;5031215;28;20030;-85
2023/03/13 09:59:51;;;;;;;8.60;1.80;;;14.30;99.90;;;;;;5033613;28;20067;-84
2023/03/13 10:02:33;;;;;;;9.20;1.60;;;14.30;99.90;;;;;;5029033;28;20025;-89
2023/03/13 10:05:10;;;;;;;8.13;1.38;;;14.40;99.90;;;;;;5018340;28;20087;-85
2023/03/13 10:07:36;;;;;;;5.93;1.70;;;14.50;99.90;;;;;;5033397;28;20466;-88
2023/03/13 10:10:03;;;;;;;7.70;1.70;;;14.50;99.90;;;;;;5036949;28;20105;-84
2023/03/13 10:12:37;;;;;;;9.95;2.42;;;14.50;99.90;;;;;;5027977;28;20030;-83
2023/03/13 10:15:26;;;;;;;8.80;3.08;;;14.50;99.90;;;;;;5033516;28;20018;-84
2023/03/13 10:17:52;;;;;;;7.68;1.85;;;14.50;99.90;;;;;;5024816;28;20040;-85
2023/03/13 10:20:32;;;;;;;7.23;1.40;;;14.50;99.90;;;;;;5032464;28;20104;-82
2023/03/13 10:23:02;;;;;;;5.78;1.30;;;14.40;99.90;;;;;;5029221;28;20060;-88
2023/03/13 10:25:34;;;;;;;5.43;1.75;;;14.60;99.90;;;;;;5034045;28;20022;-86
2023/03/13 10:28:01;;;;;;;3.42;1.35;;;14.90;99.90;;;;;;5031544;28;20340;-81
2023/03/13 10:30:34;;;;;;;6.15;1.33;;;15.30;99.90;;;;;;5037147;28;20021;-85
2023/03/13 10:33:06;;;;;;;5.40;1.58;;;15.30;99.90;;;;;;5034587;28;20420;-83
2023/03/13 10:35:34;;;;;;;6.32;1.15;;;15.10;99.90;;;;;;5026605;28;20048;-87
2023/03/13 10:38:11;;;;;;;7.07;1.60;;;15.10;99.90;;;;;;5023362;28;20060;-87
2023/03/13 10:40:38;;;;;;;9.80;1.50;;;15.00;99.90;;;;;;5031349;28;20424;-90
2023/03/13 10:43:18;;;;;;;3.80;1.38;;;14.90;99.90;;;;;;5032261;28;20056;-85
2023/03/13 10:45:44;;;;;;;10.52;1.27;;;15.00;99.90;;;;;;5035979;28;20051;-79
2023/03/13 10:48:10;;;;;;;6.33;0.60;;;15.00;99.90;;;;;;5032107;28;20108;-87
2023/03/13 10:50:36;;;;;;;5.23;1.37;;;15.00;99.90;;;;;;5028020;28;20397;-82
2023/03/13 10:53:28;;;;;;;4.97;1.20;;;15.00;99.90;;;;;;5033081;28;20026;-84
2023/03/13 10:56:14;;;;;;;7.93;1.27;;;14.90;99.90;;;;;;5028391;28;20375;-78
2023/03/13 10:58:42;;;;;;;4.60;1.75;;;14.80;99.90;;;;;;5036361;28;20108;-76
2023/03/13 11:01:24;;;;;;;11.73;1.40;;;14.80;99.90;;;;;;5035170;28;20467;-84
2023/03/13 11:03:52;;;;;;;7.50;1.40;;;14.80;99.90;;;;;;5008569;28;20128;-83
2023/03/13 11:06:33;;;;;;;8.25;1.27;;;14.70;99.90;;;;;;5030058;28;20479;-83
2023/03/13 11:09:12;;;;;;;7.88;1.55;;;14.80;99.90;;;;;;5023731;28;20037;-86
2023/03/13 11:11:54;;;;;;;8.23;2.05;;;14.70;99.90;;;;;;5020180;28;20025;-85
2023/03/13 11:14:24;;;;;;;6.63;2.03;;;14.70;99.90;;;;;;5027743;28;20477;-83
2023/03/13 11:17:31;;;;;;;7.47;1.30;;;14.80;99.90;;;;;;5031656;28;20112;-87
2023/03/13 11:20:26;;;;;;;5.45;1.42;;;14.80;99.90;;;;;;5030761;28;20136;-85
2023/03/13 11:23:00;;;;;;;7.40;1.38;;;15.00;99.90;;;;;;5034663;28;20053;-77
2023/03/13 11:26:03;;;;;;;7.20;1.45;;;15.20;99.90;;;;;;5030859;28;20701;-76
2023/03/13 11:28:32;;;;;;;8.27;1.50;;;15.30;99.90;;;;;;5027391;28;20079;-85
2023/03/13 11:31:22;;;;;;;3.42;1.20;;;15.50;99.90;;;;;;5020347;28;20025;-80
2023/03/13 11:34:19;;;;;;;11.30;1.90;;;15.80;99.90;;;;;;5022565;28;20104;-82
2023/03/13 11:37:07;;;;;;;14.73;2.72;;;15.90;99.90;;;;;;5023893;28;20057;-86
2023/03/13 11:39:51;;;;;;;13.35;2.10;;;15.80;99.90;;;;;;5022794;28;20029;-78
2023/03/13 11:42:31;;;;;;;9.50;2.00;;;15.70;99.90;;;;;;5031620;28;20040;-84
2023/03/13 11:45:06;;;;;;;13.00;2.22;;;15.50;99.90;;;;;;5026614;28;20416;-71
2023/03/13 11:47:31;;;;;;;14.18;1.92;;;15.50;99.90;;;;;;5028904;28;20118;-78
2023/03/13 11:50:12;;;;;;;8.70;2.30;;;15.40;99.90;;;;;;5033672;28;20021;-72
2023/03/13 11:52:42;;;;;;;11.52;2.53;;;15.40;99.90;;;;;;5023849;28;20305;-75
2023/03/13 11:55:34;;;;;;;8.00;1.45;;;15.40;99.90;;;;;;5009867;28;20025;-77
2023/03/13 11:58:08;;;;;;;9.20;1.75;;;15.70;99.90;;;;;;5016888;28;20029;-76
2023/03/13 12:00:39;;;;;;;10.77;2.30;;;15.70;99.90;;;;;;5026976;28;20025;-78
2023/03/13 12:03:21;;;;;;;15.57;2.78;;;15.80;99.90;;;;;;5024320;28;20029;-68
2023/03/13 12:05:55;;;;;;;12.60;2.38;;;15.80;99.90;;;;;;5031117;28;20037;-81
2023/03/13 12:08:29;;;;;;;16.13;2.70;;;15.60;99.90;;;;;;5030357;28;20025;-73
2023/03/13 12:11:20;;;;;;;11.35;2.28;;;15.50;99.90;;;;;;5028009;28;20136;-79
2023/03/13 12:14:04;;;;;;;13.90;2.42;;;15.50;99.90;;;;;;5025670;28;20053;-74
2023/03/13 12:16:48;;;;;;;18.30;3.38;;;15.40;99.90;;;;;;5045559;28;20032;-74
2023/03/13 12:19:20;;;;;;;11.30;2.63;;;15.40;99.90;;;;;;5032064;28;20048;-70
2023/03/13 12:21:52;;;;;;;9.60;2.40;;;15.60;99.90;;;;;;5027873;28;20033;-80
2023/03/13 12:24:38;;;;;;;14.00;2.80;;;15.70;99.90;;;;;;5025516;28;20029;-76
2023/03/13 12:27:48;;;;;;;17.50;2.78;;;15.70;99.90;;;;;;5031123;28;20025;-67
2023/03/13 12:30:25;;;;;;;14.45;2.10;;;15.70;99.90;;;;;;5030065;28;20045;-74
2023/03/13 12:33:23;;;;;;;12.95;2.75;;;15.90;99.90;;;;;;5027274;28;20520;-75
2023/03/13 12:36:00;;;;;;;16.85;2.53;;;15.90;99.90;;;;;;5014336;28;20314;-70
2023/03/13 12:38:36;;;;;;;16.77;3.00;;;16.10;99.90;;;;;;5029064;28;20036;-83
2023/03/13 12:41:20;;;;;;;20.60;3.05;;;16.30;99.90;;;;;;5029168;28;20029;-81
2023/03/13 12:43:51;;;;;;;18.17;3.10;;;16.40;99.90;;;;;;5029211;28;20136;-83
2023/03/13 12:46:35;;;;;;;16.35;3.42;;;16.50;99.90;;;;;;5029630;28;20032;-84
2023/03/13 12:49:43;;;;;;;13.48;2.20;;;16.50;99.90;;;;;;5032791;28;20028;-71
2023/03/13 12:52:15;;;;;;;15.98;2.85;;;16.20;99.90;;;;;;5028574;28;20083;-74
2023/03/13 12:54:47;;;;;;;18.35;2.88;;;16.10;99.90;;;;;;5035799;28;20021;-86
2023/03/13 12:57:15;;;;;;;13.68;2.75;;;16.20;99.90;;;;;;5023292;28;20044;-77